Dr.Michael Heilos
Wetterdaten: aktuell Mittwoch, 18.09.2019 07:00
Datum Zeit Temp. A. Feuchte A. Luftdruck Regen Wind Richtung Richtung Sonnenschein Solar Windchill Windben
18.09.2019 07:00 8,1 C 75 % 1026,2 hPa 0,0 l/m 0,7 km/h (0 Bft) W-NW 302 0 min 0 W/m 8,1 C 3,2 km/h (1 Bft)
18.09.2019 06:50 8,2 C 74 % 1026,1 hPa 0,0 l/m 0,3 km/h (0 Bft) NW 323 0 min 0 W/m 8,2 C 1,6 km/h (1 Bft)
18.09.2019 06:40 8,3 C 74 % 1026,2 hPa 0,0 l/m 0,5 km/h (0 Bft) NW 323 0 min 0 W/m 8,3 C 4,8 km/h (1 Bft)
18.09.2019 06:30 8,4 C 74 % 1026,2 hPa 0,0 l/m 0,4 km/h (0 Bft) W-SW 258 0 min 0 W/m 8,4 C 3,2 km/h (1 Bft)
18.09.2019 06:20 8,3 C 75 % 1026,0 hPa 0,0 l/m 0,9 km/h (0 Bft) W-SW 258 0 min 0 W/m 8,3 C 4,8 km/h (1 Bft)
18.09.2019 06:10 8,3 C 75 % 1026,0 hPa 0,0 l/m 1,1 km/h (1 Bft) W-NW 303 0 min 0 W/m 8,3 C 6,4 km/h (2 Bft)
18.09.2019 06:00 8,2 C 75 % 1026,0 hPa 0,0 l/m 1,0 km/h (0 Bft) W 264 0 min 0 W/m 8,2 C 4,8 km/h (1 Bft)
18.09.2019 05:50 8,2 C 75 % 1026,1 hPa 0,0 l/m 1,3 km/h (1 Bft) W 259 0 min 0 W/m 8,2 C 4,8 km/h (1 Bft)
18.09.2019 05:40 7,9 C 76 % 1026,0 hPa 0,0 l/m 1,0 km/h (0 Bft) W-NW 284 0 min 0 W/m 7,9 C 4,8 km/h (1 Bft)
18.09.2019 05:30 7,7 C 77 % 1026,0 hPa 0,0 l/m 1,1 km/h (1 Bft) W-NW 284 0 min 0 W/m 7,7 C 4,8 km/h (1 Bft)
18.09.2019 05:20 7,4 C 77 % 1025,9 hPa 0,0 l/m 0,5 km/h (0 Bft) W-SW 241 0 min 0 W/m 7,4 C 3,2 km/h (1 Bft)
18.09.2019 05:10 7,3 C 77 % 1025,9 hPa 0,0 l/m 0,9 km/h (0 Bft) W-SW 243 0 min 0 W/m 7,3 C 4,8 km/h (1 Bft)
18.09.2019 05:00 7,1 C 77 % 1025,9 hPa 0,0 l/m 0,8 km/h (0 Bft) W 281 0 min 0 W/m 7,1 C 4,8 km/h (1 Bft)
18.09.2019 04:50 6,8 C 76 % 1025,9 hPa 0,0 l/m 0,3 km/h (0 Bft) SW 236 0 min 0 W/m 6,8 C 4,8 km/h (1 Bft)
18.09.2019 04:40 6,9 C 76 % 1025,7 hPa 0,0 l/m 0,2 km/h (0 Bft) SW 215 0 min 0 W/m 6,9 C 3,2 km/h (1 Bft)
18.09.2019 04:30 7,1 C 76 % 1025,7 hPa 0,0 l/m 0,3 km/h (0 Bft) S-SW 207 0 min 0 W/m 7,1 C 1,6 km/h (1 Bft)
18.09.2019 04:20 7,2 C 76 % 1025,6 hPa 0,0 l/m 0,7 km/h (0 Bft) S-SW 207 0 min 0 W/m 7,2 C 3,2 km/h (1 Bft)
18.09.2019 04:10 7,3 C 75 % 1025,5 hPa 0,0 l/m 0,8 km/h (0 Bft) S 189 0 min 0 W/m 7,3 C 4,8 km/h (1 Bft)
18.09.2019 04:00 7,3 C 75 % 1025,5 hPa 0,0 l/m 0,7 km/h (0 Bft) SW 235 0 min 0 W/m 7,3 C 3,2 km/h (1 Bft)
18.09.2019 03:50 7,5 C 75 % 1025,5 hPa 0,0 l/m 0,6 km/h (0 Bft) SW 216 0 min 0 W/m 7,5 C 4,8 km/h (1 Bft)
18.09.2019 03:40 7,7 C 74 % 1025,5 hPa 0,0 l/m 0,6 km/h (0 Bft) W-SW 238 0 min 0 W/m 7,7 C 3,2 km/h (1 Bft)
18.09.2019 03:30 8,0 C 74 % 1025,5 hPa 0,0 l/m 0,5 km/h (0 Bft) W 263 0 min 0 W/m 8,0 C 3,2 km/h (1 Bft)
18.09.2019 03:20 8,2 C 74 % 1025,4 hPa 0,0 l/m 1,7 km/h (1 Bft) W 263 0 min 0 W/m 8,2 C 6,4 km/h (2 Bft)
18.09.2019 03:10 8,4 C 73 % 1025,4 hPa 0,0 l/m 1,3 km/h (1 Bft) W-SW 244 0 min 0 W/m 8,4 C 4,8 km/h (1 Bft)
18.09.2019 03:00 8,6 C 73 % 1025,3 hPa 0,0 l/m 3,0 km/h (1 Bft) W-SW 246 0 min 0 W/m 8,6 C 9,7 km/h (2 Bft)
18.09.2019 02:50 8,7 C 73 % 1025,3 hPa 0,0 l/m 1,6 km/h (1 Bft) W 263 0 min 0 W/m 8,7 C 6,4 km/h (2 Bft)
18.09.2019 02:40 8,7 C 73 % 1025,2 hPa 0,0 l/m 2,7 km/h (1 Bft) W-NW 299 0 min 0 W/m 8,7 C 11,3 km/h (2 Bft)
18.09.2019 02:30 8,6 C 73 % 1025,2 hPa 0,0 l/m 1,5 km/h (1 Bft) W-SW 252 0 min 0 W/m 8,6 C 9,7 km/h (2 Bft)
18.09.2019 02:20 8,5 C 73 % 1025,2 hPa 0,0 l/m 1,5 km/h (1 Bft) SW 229 0 min 0 W/m 8,5 C 4,8 km/h (1 Bft)
18.09.2019 02:10 8,6 C 72 % 1025,3 hPa 0,0 l/m 2,4 km/h (1 Bft) W-SW 244 0 min 0 W/m 8,6 C 11,3 km/h (2 Bft)
18.09.2019 02:00 8,6 C 72 % 1025,3 hPa 0,0 l/m 2,9 km/h (1 Bft) S-SW 213 0 min 0 W/m 8,6 C 11,3 km/h (2 Bft)
18.09.2019 01:50 8,7 C 72 % 1025,2 hPa 0,0 l/m 2,5 km/h (1 Bft) W 265 0 min 0 W/m 8,7 C 8,0 km/h (2 Bft)
18.09.2019 01:40 8,7 C 72 % 1025,2 hPa 0,0 l/m 2,6 km/h (1 Bft) SW 215 0 min 0 W/m 8,7 C 9,7 km/h (2 Bft)
18.09.2019 01:30 8,8 C 71 % 1025,0 hPa 0,0 l/m 2,6 km/h (1 Bft) W 275 0 min 0 W/m 8,8 C 12,9 km/h (3 Bft)
18.09.2019 01:20 8,9 C 71 % 1025,0 hPa 0,0 l/m 3,5 km/h (1 Bft) W 273 0 min 0 W/m 8,9 C 8,0 km/h (2 Bft)
18.09.2019 01:10 8,9 C 71 % 1025,0 hPa 0,0 l/m 3,6 km/h (1 Bft) W-SW 239 0 min 0 W/m 8,9 C 9,7 km/h (2 Bft)
18.09.2019 01:00 9,0 C 71 % 1024,9 hPa 0,0 l/m 3,2 km/h (1 Bft) W-NW 302 0 min 0 W/m 9,0 C 9,7 km/h (2 Bft)
18.09.2019 00:50 9,1 C 70 % 1024,8 hPa 0,0 l/m 4,4 km/h (1 Bft) W 262 0 min 0 W/m 9,1 C 19,3 km/h (3 Bft)
18.09.2019 00:40 9,2 C 70 % 1024,8 hPa 0,0 l/m 4,8 km/h (1 Bft) W-SW 256 0 min 0 W/m 9,2 C 16,1 km/h (3 Bft)
18.09.2019 00:30 9,2 C 70 % 1024,7 hPa 0,0 l/m 4,4 km/h (1 Bft) W 273 0 min 0 W/m 9,2 C 12,9 km/h (3 Bft)
18.09.2019 00:20 9,2 C 70 % 1024,6 hPa 0,0 l/m 4,5 km/h (1 Bft) W 280 0 min 0 W/m 9,2 C 12,9 km/h (3 Bft)
18.09.2019 00:10 9,2 C 70 % 1024,5 hPa 0,0 l/m 4,6 km/h (1 Bft) W-SW 241 0 min 0 W/m 9,2 C 12,9 km/h (3 Bft)
18.09.2019 00:00 9,1 C 70 % 1024,3 hPa 0,0 l/m 3,9 km/h (1 Bft) W-NW 292 0 min 0 W/m 9,1 C 12,9 km/h (3 Bft)
17.09.2019 23:50 9,0 C 70 % 1024,3 hPa 0,0 l/m 3,6 km/h (1 Bft) W 259 0 min 0 W/m 9,0 C 11,3 km/h (2 Bft)
17.09.2019 23:40 8,9 C 70 % 1024,2 hPa 0,0 l/m 3,4 km/h (1 Bft) NW 309 0 min 0 W/m 8,9 C 12,9 km/h (3 Bft)
17.09.2019 23:30 9,0 C 70 % 1024,1 hPa 0,0 l/m 2,8 km/h (1 Bft) W 275 0 min 0 W/m 9,0 C 8,0 km/h (2 Bft)
17.09.2019 23:20 9,2 C 69 % 1024,2 hPa 0,0 l/m 3,3 km/h (1 Bft) W 279 0 min 0 W/m 9,2 C 11,3 km/h (2 Bft)
17.09.2019 23:10 9,4 C 69 % 1024,2 hPa 0,0 l/m 3,7 km/h (1 Bft) W-SW 248 0 min 0 W/m 9,4 C 6,4 km/h (2 Bft)
17.09.2019 23:00 9,6 C 68 % 1024,2 hPa 0,0 l/m 3,8 km/h (1 Bft) W-SW 248 0 min 0 W/m 9,6 C 12,9 km/h (3 Bft)
17.09.2019 22:50 9,7 C 68 % 1024,1 hPa 0,0 l/m 4,8 km/h (1 Bft) W-SW 244 0 min 0 W/m 9,7 C 11,3 km/h (2 Bft)
17.09.2019 22:40 9,8 C 67 % 1024,0 hPa 0,0 l/m 3,5 km/h (1 Bft) W 263 0 min 0 W/m 9,8 C 11,3 km/h (2 Bft)
17.09.2019 22:30 10,0 C 67 % 1023,8 hPa 0,0 l/m 3,4 km/h (1 Bft) W 269 0 min 0 W/m 10,0 C 11,3 km/h (2 Bft)
17.09.2019 22:20 10,2 C 66 % 1023,8 hPa 0,0 l/m 3,7 km/h (1 Bft) NW 320 0 min 0 W/m 10,2 C 12,9 km/h (3 Bft)
17.09.2019 22:10 10,3 C 65 % 1023,8 hPa 0,0 l/m 4,1 km/h (1 Bft) W-SW 238 0 min 0 W/m 10,3 C 11,3 km/h (2 Bft)
17.09.2019 22:00 10,6 C 65 % 1023,7 hPa 0,0 l/m 4,1 km/h (1 Bft) W-SW 245 0 min 0 W/m 10,6 C 12,9 km/h (3 Bft)
17.09.2019 21:50 10,7 C 64 % 1023,5 hPa 0,0 l/m 3,9 km/h (1 Bft) W-NW 290 0 min 0 W/m 10,7 C 12,9 km/h (3 Bft)
17.09.2019 21:40 10,9 C 64 % 1023,3 hPa 0,0 l/m 3,2 km/h (1 Bft) W-SW 246 0 min 0 W/m 10,9 C 11,3 km/h (2 Bft)
17.09.2019 21:30 11,1 C 63 % 1023,1 hPa 0,0 l/m 4,7 km/h (1 Bft) N-NW 344 0 min 0 W/m 11,1 C 17,7 km/h (3 Bft)
17.09.2019 21:20 11,3 C 62 % 1023,1 hPa 0,0 l/m 4,3 km/h (1 Bft) W 262 0 min 0 W/m 11,3 C 14,5 km/h (3 Bft)
17.09.2019 21:10 11,5 C 61 % 1023,0 hPa 0,0 l/m 4,4 km/h (1 Bft) NW 324 0 min 0 W/m 11,5 C 19,3 km/h (3 Bft)
17.09.2019 21:00 11,7 C 61 % 1022,7 hPa 0,0 l/m 2,7 km/h (1 Bft) W 259 0 min 0 W/m 11,7 C 9,7 km/h (2 Bft)
17.09.2019 20:50 12,1 C 60 % 1022,7 hPa 0,0 l/m 6,7 km/h (2 Bft) N-NW 331 0 min 0 W/m 11,9 C 20,9 km/h (4 Bft)
17.09.2019 20:40 12,1 C 59 % 1022,6 hPa 0,0 l/m 6,0 km/h (2 Bft) N-NW 342 0 min 0 W/m 12,1 C 19,3 km/h (3 Bft)
17.09.2019 20:30 12,2 C 60 % 1022,5 hPa 0,0 l/m 7,2 km/h (2 Bft) N 11 0 min 0 W/m 11,7 C 20,9 km/h (4 Bft)
17.09.2019 20:20 12,4 C 60 % 1022,4 hPa 0,0 l/m 5,7 km/h (1 Bft) N 360 0 min 0 W/m 12,4 C 16,1 km/h (3 Bft)
17.09.2019 20:10 12,6 C 60 % 1022,2 hPa 0,0 l/m 10,3 km/h (2 Bft) NW 309 0 min 0 W/m 10,3 C 25,7 km/h (4 Bft)
17.09.2019 20:00 12,6 C 59 % 1022,0 hPa 0,0 l/m 8,3 km/h (2 Bft) N-NO 12 0 min 0 W/m 11,4 C 20,9 km/h (4 Bft)
17.09.2019 19:50 12,7 C 59 % 1021,8 hPa 0,0 l/m 5,5 km/h (1 Bft) NW 318 0 min 0 W/m 12,7 C 17,7 km/h (3 Bft)
17.09.2019 19:40 12,8 C 59 % 1021,6 hPa 0,0 l/m 4,7 km/h (1 Bft) S-SW 209 0 min 0 W/m 12,8 C 14,5 km/h (3 Bft)
17.09.2019 19:30 13,1 C 58 % 1021,5 hPa 0,0 l/m 7,4 km/h (2 Bft) N 355 0 min 7 W/m 12,5 C 19,3 km/h (3 Bft)
17.09.2019 19:20 13,3 C 58 % 1021,3 hPa 0,0 l/m 6,2 km/h (2 Bft) N-NO 31 0 min 14 W/m 13,3 C 19,3 km/h (3 Bft)
17.09.2019 19:10 13,6 C 58 % 1021,3 hPa 0,0 l/m 6,8 km/h (2 Bft) SW 227 0 min 21 W/m 13,4 C 27,4 km/h (4 Bft)
17.09.2019 19:00 13,8 C 58 % 1021,2 hPa 0,0 l/m 7,4 km/h (2 Bft) N 355 0 min 23 W/m 13,2 C 24,1 km/h (4 Bft)
17.09.2019 18:50 13,8 C 60 % 1021,1 hPa 0,0 l/m 8,9 km/h (2 Bft) N 350 0 min 32 W/m 12,3 C 22,5 km/h (4 Bft)
17.09.2019 18:40 14,0 C 61 % 1021,1 hPa 0,0 l/m 6,6 km/h (2 Bft) N-NW 328 0 min 21 W/m 13,9 C 27,4 km/h (4 Bft)
17.09.2019 18:30 14,1 C 62 % 1020,9 hPa 0,0 l/m 8,0 km/h (2 Bft) N 360 0 min 21 W/m 13,2 C 24,1 km/h (4 Bft)
17.09.2019 18:20 14,2 C 62 % 1020,7 hPa 0,0 l/m 5,7 km/h (1 Bft) N 355 0 min 23 W/m 14,2 C 14,5 km/h (3 Bft)
17.09.2019 18:10 14,3 C 62 % 1020,7 hPa 0,0 l/m 8,2 km/h (2 Bft) W 277 0 min 54 W/m 13,3 C 20,9 km/h (4 Bft)
17.09.2019 18:00 14,3 C 61 % 1020,7 hPa 0,0 l/m 8,9 km/h (2 Bft) S-SW 211 0 min 56 W/m 12,9 C 25,7 km/h (4 Bft)
17.09.2019 17:50 14,3 C 62 % 1020,7 hPa 0,0 l/m 8,9 km/h (2 Bft) N 360 0 min 72 W/m 12,9 C 24,1 km/h (4 Bft)
17.09.2019 17:40 14,3 C 62 % 1020,5 hPa 0,0 l/m 6,7 km/h (2 Bft) W-NW 298 0 min 86 W/m 14,1 C 29,0 km/h (5 Bft)
17.09.2019 17:30 14,3 C 61 % 1020,5 hPa 0,0 l/m 9,1 km/h (2 Bft) N 11 0 min 91 W/m 12,8 C 24,1 km/h (4 Bft)
17.09.2019 17:20 14,4 C 60 % 1020,5 hPa 0,0 l/m 10,1 km/h (2 Bft) N-NW 327 0 min 74 W/m 12,4 C 30,6 km/h (5 Bft)
17.09.2019 17:10 14,9 C 60 % 1020,3 hPa 0,0 l/m 8,4 km/h (2 Bft) N-NW 329 0 min 72 W/m 13,8 C 33,8 km/h (5 Bft)
17.09.2019 17:00 15,4 C 60 % 1020,3 hPa 0,0 l/m 8,7 km/h (2 Bft) W-SW 257 10 min 218 W/m 14,2 C 24,1 km/h (4 Bft)
17.09.2019 16:50 15,7 C 59 % 1020,0 hPa 0,0 l/m 9,0 km/h (2 Bft) S 183 10 min 329 W/m 14,3 C 27,4 km/h (4 Bft)
17.09.2019 16:40 15,5 C 63 % 1020,1 hPa 0,0 l/m 5,5 km/h (1 Bft) NW 311 10 min 448 W/m 15,5 C 19,3 km/h (3 Bft)
17.09.2019 16:30 14,6 C 67 % 1019,9 hPa 0,0 l/m 7,3 km/h (2 Bft) NW 306 10 min 292 W/m 14,1 C 19,3 km/h (3 Bft)
17.09.2019 16:20 14,0 C 69 % 1020,1 hPa 0,0 l/m 6,3 km/h (2 Bft) S-SO 156 10 min 264 W/m 14,0 C 19,3 km/h (3 Bft)
17.09.2019 16:10 13,6 C 70 % 1020,1 hPa 0,0 l/m 7,4 km/h (2 Bft) W-NW 288 10 min 218 W/m 13,0 C 19,3 km/h (3 Bft)
17.09.2019 16:00 12,8 C 73 % 1020,4 hPa 0,0 l/m 9,0 km/h (2 Bft) NW 321 10 min 156 W/m 11,2 C 24,1 km/h (4 Bft)
17.09.2019 15:50 12,4 C 73 % 1020,3 hPa 0,0 l/m 7,6 km/h (2 Bft) N-NO 21 10 min 158 W/m 11,6 C 22,5 km/h (4 Bft)
17.09.2019 15:40 12,4 C 72 % 1020,4 hPa 0,2 l/m 5,0 km/h (1 Bft) W 271 0 min 14 W/m 12,4 C 16,1 km/h (3 Bft)
17.09.2019 15:30 12,6 C 72 % 1020,4 hPa 0,0 l/m 5,8 km/h (2 Bft) W 263 0 min 21 W/m 12,6 C 17,7 km/h (3 Bft)
17.09.2019 15:20 12,9 C 70 % 1020,5 hPa 0,0 l/m 8,4 km/h (2 Bft) W-SW 248 0 min 11 W/m 11,7 C 20,9 km/h (4 Bft)
17.09.2019 15:10 13,8 C 68 % 1020,3 hPa 0,0 l/m 10,4 km/h (2 Bft) N-NW 341 0 min 25 W/m 11,6 C 24,1 km/h (4 Bft)
17.09.2019 15:00 15,1 C 61 % 1020,1 hPa 0,0 l/m 8,7 km/h (2 Bft) W-NW 300 0 min 11 W/m 13,8 C 29,0 km/h (5 Bft)
17.09.2019 14:50 15,2 C 59 % 1019,6 hPa 0,0 l/m 9,5 km/h (2 Bft) W-SW 254 0 min 19 W/m 13,6 C 27,4 km/h (4 Bft)
17.09.2019 14:40 15,4 C 59 % 1019,7 hPa 0,0 l/m 9,5 km/h (2 Bft) W 269 0 min 40 W/m 13,8 C 29,0 km/h (5 Bft)
17.09.2019 14:30 15,9 C 59 % 1019,7 hPa 0,0 l/m 10,7 km/h (2 Bft) SW 220 0 min 67 W/m 13,8 C 25,7 km/h (4 Bft)
17.09.2019 14:20 16,4 C 58 % 1019,6 hPa 0,0 l/m 10,5 km/h (2 Bft) W-SW 243 10 min 255 W/m 14,5 C 29,0 km/h (5 Bft)
17.09.2019 14:10 16,3 C 59 % 1019,9 hPa 0,0 l/m 10,0 km/h (2 Bft) SW 221 10 min 295 W/m 14,6 C 30,6 km/h (5 Bft)
17.09.2019 14:00 16,3 C 57 % 1019,8 hPa 0,0 l/m 11,9 km/h (2 Bft) SW 232 10 min 422 W/m 13,8 C 25,7 km/h (4 Bft)
17.09.2019 13:50 16,1 C 58 % 1020,0 hPa 0,0 l/m 11,6 km/h (2 Bft) SW 214 10 min 264 W/m 13,7 C 32,2 km/h (5 Bft)
17.09.2019 13:40 16,5 C 57 % 1020,0 hPa 0,0 l/m 9,8 km/h (2 Bft) W-SW 242 10 min 371 W/m 14,9 C 29,0 km/h (5 Bft)
17.09.2019 13:30 16,4 C 59 % 1020,1 hPa 0,0 l/m 10,0 km/h (2 Bft) S 182 10 min 693 W/m 14,7 C 22,5 km/h (4 Bft)
17.09.2019 13:20 16,4 C 58 % 1020,3 hPa 0,0 l/m 10,4 km/h (2 Bft) SW 234 10 min 610 W/m 14,5 C 27,4 km/h (4 Bft)
17.09.2019 13:10 15,4 C 60 % 1020,4 hPa 0,0 l/m 8,2 km/h (2 Bft) W 262 10 min 636 W/m 14,4 C 24,1 km/h (4 Bft)
17.09.2019 13:00 14,9 C 63 % 1020,7 hPa 0,0 l/m 7,8 km/h (2 Bft) SW 232 0 min 144 W/m 14,1 C 17,7 km/h (3 Bft)
17.09.2019 12:50 14,9 C 62 % 1020,6 hPa 0,0 l/m 8,3 km/h (2 Bft) W 265 10 min 355 W/m 13,8 C 20,9 km/h (4 Bft)
17.09.2019 12:40 15,1 C 63 % 1020,7 hPa 0,0 l/m 9,3 km/h (2 Bft) SW 232 10 min 174 W/m 13,6 C 20,9 km/h (4 Bft)
17.09.2019 12:30 15,0 C 62 % 1020,8 hPa 0,0 l/m 10,7 km/h (2 Bft) SW 236 10 min 294 W/m 12,8 C 30,6 km/h (5 Bft)
17.09.2019 12:20 15,1 C 63 % 1020,7 hPa 0,0 l/m 8,0 km/h (2 Bft) SO 138 10 min 367 W/m 14,2 C 17,7 km/h (3 Bft)
17.09.2019 12:10 14,8 C 63 % 1020,8 hPa 0,0 l/m 8,9 km/h (2 Bft) W 260 10 min 322 W/m 13,4 C 29,0 km/h (5 Bft)
17.09.2019 12:00 15,2 C 62 % 1020,8 hPa 0,0 l/m 9,0 km/h (2 Bft) SW 221 10 min 364 W/m 13,8 C 17,7 km/h (3 Bft)
17.09.2019 11:50 15,3 C 63 % 1020,8 hPa 0,0 l/m 9,4 km/h (2 Bft) NW 320 10 min 359 W/m 13,7 C 30,6 km/h (5 Bft)
17.09.2019 11:40 14,7 C 63 % 1020,8 hPa 0,0 l/m 12,0 km/h (2 Bft) W-SW 246 10 min 577 W/m 11,9 C 27,4 km/h (4 Bft)
17.09.2019 11:30 15,1 C 63 % 1020,7 hPa 0,0 l/m 9,6 km/h (2 Bft) W-NW 301 10 min 582 W/m 13,4 C 27,4 km/h (4 Bft)
17.09.2019 11:20 14,8 C 63 % 1020,8 hPa 0,0 l/m 8,4 km/h (2 Bft) W 270 10 min 517 W/m 13,7 C 30,6 km/h (5 Bft)
17.09.2019 11:10 14,6 C 65 % 1020,6 hPa 0,0 l/m 7,7 km/h (2 Bft) W-NW 299 10 min 445 W/m 13,8 C 17,7 km/h (3 Bft)
17.09.2019 11:00 14,4 C 65 % 1020,6 hPa 0,0 l/m 6,7 km/h (2 Bft) W-SW 250 10 min 373 W/m 14,2 C 19,3 km/h (3 Bft)
17.09.2019 10:50 14,2 C 67 % 1020,7 hPa 0,0 l/m 6,2 km/h (2 Bft) NO 42 10 min 345 W/m 14,2 C 16,1 km/h (3 Bft)
17.09.2019 10:40 13,8 C 68 % 1020,7 hPa 0,0 l/m 6,5 km/h (2 Bft) S 169 10 min 287 W/m 13,8 C 20,9 km/h (4 Bft)
17.09.2019 10:30 13,6 C 70 % 1020,8 hPa 0,0 l/m 6,8 km/h (2 Bft) W 259 10 min 329 W/m 13,4 C 17,7 km/h (3 Bft)
17.09.2019 10:20 13,4 C 70 % 1020,8 hPa 0,0 l/m 8,4 km/h (2 Bft) NW 317 10 min 355 W/m 12,2 C 19,3 km/h (3 Bft)
17.09.2019 10:10 13,3 C 72 % 1020,8 hPa 0,0 l/m 5,6 km/h (1 Bft) NW 323 10 min 360 W/m 13,3 C 19,3 km/h (3 Bft)
17.09.2019 10:00 12,8 C 73 % 1020,9 hPa 0,0 l/m 6,2 km/h (2 Bft) W 274 10 min 346 W/m 12,8 C 20,9 km/h (4 Bft)
17.09.2019 09:50 12,5 C 74 % 1020,9 hPa 0,0 l/m 5,8 km/h (2 Bft) W-SW 251 10 min 276 W/m 12,5 C 16,1 km/h (3 Bft)
17.09.2019 09:40 12,3 C 74 % 1021,0 hPa 0,0 l/m 6,5 km/h (2 Bft) W 267 10 min 257 W/m 12,3 C 17,7 km/h (3 Bft)
17.09.2019 09:30 12,0 C 75 % 1021,0 hPa 0,0 l/m 5,7 km/h (1 Bft) SW 219 10 min 264 W/m 12,0 C 17,7 km/h (3 Bft)
17.09.2019 09:20 11,8 C 76 % 1020,8 hPa 0,0 l/m 5,6 km/h (1 Bft) N 355 10 min 190 W/m 11,8 C 14,5 km/h (3 Bft)
17.09.2019 09:10 11,6 C 77 % 1020,9 hPa 0,0 l/m 5,5 km/h (1 Bft) W-NW 288 10 min 216 W/m 11,6 C 17,7 km/h (3 Bft)
17.09.2019 09:00 11,3 C 78 % 1020,9 hPa 0,0 l/m 5,0 km/h (1 Bft) W-SW 257 0 min 109 W/m 11,3 C 16,1 km/h (3 Bft)
17.09.2019 08:50 11,2 C 79 % 1020,8 hPa 0,0 l/m 4,7 km/h (1 Bft) S-SW 205 0 min 98 W/m 11,2 C 12,9 km/h (3 Bft)
17.09.2019 08:40 11,2 C 80 % 1020,9 hPa 0,0 l/m 4,1 km/h (1 Bft) W-SW 238 0 min 62 W/m 11,2 C 16,1 km/h (3 Bft)
17.09.2019 08:30 11,1 C 80 % 1020,6 hPa 0,0 l/m 3,3 km/h (1 Bft) W 267 0 min 79 W/m 11,1 C 9,7 km/h (2 Bft)
17.09.2019 08:20 10,9 C 80 % 1020,4 hPa 0,0 l/m 5,2 km/h (1 Bft) W-SW 248 0 min 67 W/m 10,9 C 16,1 km/h (3 Bft)
17.09.2019 08:10 10,9 C 80 % 1020,5 hPa 0,0 l/m 4,2 km/h (1 Bft) W 269 0 min 47 W/m 10,9 C 12,9 km/h (3 Bft)
17.09.2019 08:00 10,9 C 80 % 1020,6 hPa 0,0 l/m 5,7 km/h (1 Bft) W-SW 240 0 min 42 W/m 10,9 C 16,1 km/h (3 Bft)
_ Min-Zeit 04:50 13:40 14:20 - 04:40 - - - - 04:50 04:30
Minimum _ 6,8 C 57 % 1019,6 hPa - 0,2 km/h (0 Bft) - - - - 6,8 C 1,6 km/h (1 Bft)
_ Max-Zeit 13:50 08:00 06:30 15:40 11:40 - - 09:10 13:30 16:40 17:10
Maximum _ 16,7 C 80 % 1026,2 hPa 0,2 l/m 12,0 km/h
W-SW (2 Bft)
- - 10 min 693 W/m 15,5 C 33,8 km/h
N (5 Bft)
Durchschnitt _ 11,6 C 69 % 1022,4 hPa #0,2 l/m 5,4 km/h (1 Bft) W - #0 min. 0 W/m 11,1 C 16,1 km/h (3 Bft)